createdAt,value
2022-11-30T00:01:49.997Z,101255.25
2022-11-30T00:06:53.641Z,101255.75
2022-11-30T00:11:57.192Z,101248.28
2022-11-30T00:17:02.428Z,101246.06
2022-11-30T00:22:06.103Z,101255.84
2022-11-30T00:27:09.791Z,101249.31
2022-11-30T00:32:14.962Z,101250.56
2022-11-30T00:37:18.500Z,101262.94
2022-11-30T00:42:22.134Z,101254.25
2022-11-30T00:47:27.476Z,101262.09
2022-11-30T00:52:31.442Z,101262.81
2022-11-30T00:57:35.048Z,101254.47
2022-11-30T01:02:41.270Z,101253.69
2022-11-30T01:07:44.942Z,101261.72
2022-11-30T01:12:48.548Z,101272.22
2022-11-30T01:17:53.803Z,101261.41
2022-11-30T01:22:57.560Z,101264.41
2022-11-30T01:28:01.133Z,101268.94
2022-11-30T01:33:06.734Z,101262.19
2022-11-30T01:38:10.285Z,101266.63
2022-11-30T01:43:14.124Z,101270.06
2022-11-30T01:48:19.327Z,101265.75
2022-11-30T01:53:23.950Z,101275.41
2022-11-30T01:58:30.886Z,101266.69
2022-11-30T02:03:40.708Z,101269.31
2022-11-30T02:08:44.565Z,101270.47
2022-11-30T02:14:14.517Z,101269.75
2022-11-30T02:19:54.098Z,101277.50
2022-11-30T02:25:09.186Z,101276.47
2022-11-30T02:30:17.332Z,101283.59
2022-11-30T02:35:25.799Z,101283.66
2022-11-30T02:40:29.565Z,101302.03
2022-11-30T02:45:38.939Z,101309.91
2022-11-30T02:50:46.631Z,101315.16
2022-11-30T02:55:50.248Z,101319.53
2022-11-30T03:00:55.448Z,101331.84
2022-11-30T03:05:59.032Z,101329.25
2022-11-30T03:11:03.832Z,101331.88
2022-11-30T03:16:11.323Z,101337.97
2022-11-30T03:21:14.969Z,101345.00
2022-11-30T03:26:18.627Z,101353.72
2022-11-30T03:31:23.827Z,101344.22
2022-11-30T03:36:27.379Z,101347.75
2022-11-30T03:41:31.254Z,101343.41
2022-11-30T03:46:36.478Z,101345.19
2022-11-30T03:51:40.032Z,101344.28
2022-11-30T03:56:43.573Z,101333.94
2022-11-30T04:01:48.877Z,101344.28
2022-11-30T04:06:52.501Z,101338.25
2022-11-30T04:11:56.292Z,101340.91
2022-11-30T04:17:01.481Z,101339.16
2022-11-30T04:22:05.046Z,101336.59
2022-11-30T04:27:08.609Z,101352.19
2022-11-30T04:32:13.783Z,101355.59
2022-11-30T04:37:17.410Z,101356.47
2022-11-30T04:42:20.962Z,101353.91
2022-11-30T04:47:26.176Z,101363.41
2022-11-30T04:52:29.739Z,101369.50
2022-11-30T04:57:33.382Z,101372.09
2022-11-30T05:02:38.593Z,101366.91
2022-11-30T05:07:42.181Z,101360.81
2022-11-30T05:12:45.760Z,101360.84
2022-11-30T05:17:50.964Z,101356.50
2022-11-30T05:22:54.499Z,101359.06
2022-11-30T05:27:58.068Z,101362.56
2022-11-30T05:33:03.261Z,101362.56
2022-11-30T05:38:06.956Z,101372.91
2022-11-30T05:43:11.070Z,101377.22
2022-11-30T05:48:16.307Z,101375.50
2022-11-30T05:53:19.919Z,101364.25
2022-11-30T05:58:26.277Z,101368.56
2022-11-30T06:03:32.301Z,101376.34
2022-11-30T06:08:35.856Z,101376.31
2022-11-30T06:13:40.532Z,101385.78
2022-11-30T06:18:46.617Z,101390.06
2022-11-30T06:23:50.157Z,101386.63
2022-11-30T06:28:53.884Z,101384.03
2022-11-30T06:33:59.927Z,101384.88
2022-11-30T06:39:03.865Z,101376.97
2022-11-30T06:44:09.724Z,101367.38
2022-11-30T06:49:14.956Z,101378.47
2022-11-30T06:54:18.567Z,101372.38
2022-11-30T06:59:22.117Z,101394.91
2022-11-30T07:04:27.345Z,101407.88
2022-11-30T07:09:31.632Z,101405.13
2022-11-30T07:14:35.255Z,101402.41
2022-11-30T07:19:40.441Z,101393.75
2022-11-30T07:24:43.982Z,101394.56
2022-11-30T07:29:47.528Z,101388.41
2022-11-30T07:34:52.704Z,101384.88
2022-11-30T07:39:56.344Z,101393.50
2022-11-30T07:45:00.100Z,101403.75
2022-11-30T07:50:06.056Z,101394.13
2022-11-30T07:55:10.381Z,101390.69
2022-11-30T08:00:14.744Z,101389.81
2022-11-30T08:05:20.091Z,101382.81
2022-11-30T08:10:24.429Z,101374.94
2022-11-30T08:15:32.376Z,101377.50
2022-11-30T08:20:38.305Z,101388.75
2022-11-30T08:25:41.852Z,101378.41
2022-11-30T08:30:45.669Z,101374.00
2022-11-30T08:35:50.927Z,101361.06
2022-11-30T08:40:58.627Z,101363.66
2022-11-30T08:46:21.252Z,101369.47
2022-11-30T08:51:47.483Z,101362.41
2022-11-30T08:56:53.850Z,101359.00
2022-11-30T09:01:57.415Z,101358.94
2022-11-30T09:07:02.601Z,101363.81
2022-11-30T09:12:07.020Z,101356.19
2022-11-30T09:17:10.795Z,101354.97
2022-11-30T09:22:15.996Z,101347.41
2022-11-30T09:27:19.575Z,101348.59
2022-11-30T09:32:23.154Z,101349.75
2022-11-30T09:37:28.357Z,101340.06
2022-11-30T09:42:44.306Z,101331.66
2022-11-30T09:48:11.767Z,101331.53
2022-11-30T09:53:28.961Z,101331.59
2022-11-30T09:58:44.672Z,101331.53
2022-11-30T10:03:48.725Z,101329.94
2022-11-30T10:09:15.247Z,101311.00
2022-11-30T10:14:58.629Z,101307.59
2022-11-30T10:20:21.499Z,101309.25
2022-11-30T10:25:33.820Z,101303.94
2022-11-30T10:30:38.534Z,101310.81
2022-11-30T10:35:44.119Z,101319.25
2022-11-30T10:40:53.447Z,101326.09
2022-11-30T10:45:57.359Z,101309.91
2022-11-30T10:51:03.292Z,101302.09
2022-11-30T10:56:12.208Z,101298.56
2022-11-30T11:01:32.158Z,101301.00
2022-11-30T11:06:36.647Z,101311.09
2022-11-30T11:11:42.085Z,101306.00
2022-11-30T11:16:54.630Z,101301.81
2022-11-30T11:21:58.345Z,101312.75
2022-11-30T11:27:03.676Z,101310.00
2022-11-30T11:32:24.172Z,101309.19
2022-11-30T11:37:29.400Z,101317.78
2022-11-30T11:42:37.376Z,101311.56
2022-11-30T11:47:44.468Z,101304.81
2022-11-30T11:52:48.081Z,101296.97
2022-11-30T11:57:57.912Z,101310.66
2022-11-30T12:03:09.401Z,101294.03
2022-11-30T12:08:17.999Z,101294.88
2022-11-30T12:13:27.914Z,101280.38
2022-11-30T12:18:38.382Z,101280.41
2022-11-30T12:24:18.042Z,101282.25
2022-11-30T12:29:26.223Z,101279.41
2022-11-30T12:34:43.867Z,101278.78
2022-11-30T12:39:57.851Z,101272.53
2022-11-30T12:45:15.679Z,101272.41
2022-11-30T12:50:30.792Z,101275.84
2022-11-30T12:55:41.084Z,101274.97
2022-11-30T13:00:58.538Z,101280.13
2022-11-30T13:06:07.979Z,101290.44
2022-11-30T13:11:18.199Z,101294.44
2022-11-30T13:16:25.568Z,101292.78
2022-11-30T13:21:34.030Z,101286.78
2022-11-30T13:26:45.314Z,101279.78
2022-11-30T13:31:57.421Z,101282.41
2022-11-30T13:37:06.824Z,101278.00
2022-11-30T13:42:49.002Z,101283.41
2022-11-30T13:47:57.951Z,101277.97
2022-11-30T13:53:31.185Z,101281.31
2022-11-30T13:58:35.705Z,101275.19
2022-11-30T14:03:41.764Z,101272.50
2022-11-30T14:08:45.390Z,101270.06
2022-11-30T14:13:49.744Z,101278.66
2022-11-30T14:18:56.498Z,101287.94
2022-11-30T14:24:04.521Z,101277.63
2022-11-30T14:29:17.174Z,101297.44
2022-11-30T14:34:25.663Z,101299.44
2022-11-30T14:39:34.472Z,101294.72
2022-11-30T14:44:41.175Z,101300.06
2022-11-30T14:49:49.344Z,101285.13
2022-11-30T14:55:03.009Z,101299.75
2022-11-30T15:00:07.731Z,101298.00
2022-11-30T15:05:16.866Z,101304.13
2022-11-30T15:10:29.719Z,101300.69
2022-11-30T15:15:36.170Z,101294.25
2022-11-30T15:20:51.728Z,101305.47
2022-11-30T15:25:59.575Z,101306.22
2022-11-30T15:31:07.316Z,101308.97
2022-11-30T15:36:27.779Z,101305.00
2022-11-30T15:41:36.967Z,101308.06
2022-11-30T15:46:54.965Z,101299.59
2022-11-30T15:52:05.834Z,101304.84
2022-11-30T15:57:09.521Z,101300.66
2022-11-30T16:02:32.689Z,101310.13
2022-11-30T16:07:40.087Z,101318.69
2022-11-30T16:12:44.696Z,101319.75
2022-11-30T16:17:48.269Z,101315.16
2022-11-30T16:22:53.754Z,101324.97
2022-11-30T16:27:57.331Z,101326.25
2022-11-30T16:33:00.918Z,101334.53
2022-11-30T16:38:06.089Z,101326.22
2022-11-30T16:43:11.852Z,101327.28
2022-11-30T16:48:15.445Z,101333.59
2022-11-30T16:53:22.788Z,101337.19
2022-11-30T16:58:28.447Z,101333.03
2022-11-30T17:03:34.767Z,101331.41
2022-11-30T17:08:39.987Z,101334.84
2022-11-30T17:13:43.630Z,101328.78
2022-11-30T17:18:47.199Z,101327.00
2022-11-30T17:23:52.520Z,101328.66
2022-11-30T17:28:56.734Z,101327.66
2022-11-30T17:34:00.396Z,101319.72
2022-11-30T17:39:08.241Z,101321.22
2022-11-30T17:44:11.967Z,101304.50
2022-11-30T17:49:15.557Z,101315.63
2022-11-30T17:54:20.761Z,101314.59
2022-11-30T17:59:24.388Z,101310.09
2022-11-30T18:04:28.764Z,101313.47
2022-11-30T18:09:39.266Z,101308.88
2022-11-30T18:14:46.963Z,101315.44
2022-11-30T18:19:50.890Z,101320.59
2022-11-30T18:24:56.234Z,101323.75
2022-11-30T18:30:00.206Z,101317.34
2022-11-30T18:35:03.813Z,101316.97
2022-11-30T18:40:10.177Z,101319.41
2022-11-30T18:45:13.043Z,101315.63
2022-11-30T18:50:16.693Z,101310.25
2022-11-30T18:55:22.010Z,101297.56
2022-11-30T19:00:25.911Z,101288.53
2022-11-30T19:05:29.512Z,101276.47
2022-11-30T19:10:35.992Z,101255.91
2022-11-30T19:15:40.416Z,101242.50
2022-11-30T19:20:43.965Z,101228.91
2022-11-30T19:25:50.067Z,101220.78
2022-11-30T19:30:53.737Z,101206.34
2022-11-30T19:36:01.519Z,101198.94
2022-11-30T19:41:08.820Z,101186.25
2022-11-30T19:46:13.708Z,101188.16
2022-11-30T19:51:18.798Z,101180.34
2022-11-30T19:56:27.237Z,101184.84
2022-11-30T20:01:31.054Z,101183.94
2022-11-30T20:06:36.633Z,101178.38
2022-11-30T20:11:41.848Z,101172.69
2022-11-30T20:16:45.430Z,101168.44
2022-11-30T20:21:49.033Z,101150.06
2022-11-30T20:26:54.241Z,101159.22
2022-11-30T20:31:58.210Z,101152.75
2022-11-30T20:37:01.795Z,101139.75
2022-11-30T20:42:07.084Z,101130.63
2022-11-30T20:47:10.671Z,101136.28
2022-11-30T20:52:14.245Z,101131.81
2022-11-30T20:57:19.443Z,101126.84
2022-11-30T21:02:23.041Z,101122.06
2022-11-30T21:07:26.645Z,101106.63
2022-11-30T21:12:32.222Z,101089.34
2022-11-30T21:17:36.203Z,101088.53
2022-11-30T21:22:39.775Z,101088.81
2022-11-30T21:27:45.011Z,101064.06
2022-11-30T21:32:48.583Z,101056.50
2022-11-30T21:37:52.167Z,101057.09
2022-11-30T21:42:57.359Z,101057.63
2022-11-30T21:48:00.926Z,101049.63
2022-11-30T21:53:04.553Z,101043.13
2022-11-30T21:58:09.747Z,101047.25
2022-11-30T22:03:18.110Z,101041.66
2022-11-30T22:08:22.915Z,101035.28
2022-11-30T22:13:29.624Z,101046.03
2022-11-30T22:18:33.346Z,101027.72
2022-11-30T22:23:38.038Z,101030.56
2022-11-30T22:28:44.376Z,101026.72
2022-11-30T22:33:48.194Z,101026.44
2022-11-30T22:38:55.925Z,101033.66
2022-11-30T22:44:01.185Z,101028.66
2022-11-30T22:49:07.323Z,101052.44
2022-11-30T22:54:10.149Z,101036.06
2022-11-30T22:59:16.167Z,101032.34
2022-11-30T23:04:20.267Z,101024.81
2022-11-30T23:09:24.688Z,101025.69
2022-11-30T23:14:29.919Z,101027.84
2022-11-30T23:19:33.476Z,101026.06
2022-11-30T23:24:37.140Z,101039.38
2022-11-30T23:29:42.336Z,101040.06
2022-11-30T23:34:50.479Z,101043.22
2022-11-30T23:39:54.283Z,101053.16
2022-11-30T23:44:59.451Z,101045.72
2022-11-30T23:50:03.001Z,101049.97
2022-11-30T23:55:07.679Z,101049.88
